createdAt,value
2018-08-30T00:01:43.760Z,100536.41
2018-08-30T00:06:47.291Z,100539.48
2018-08-30T00:11:51.037Z,100543.05
2018-08-30T00:16:54.640Z,100550.00
2018-08-30T00:21:58.192Z,100548.94
2018-08-30T00:27:01.786Z,100562.10
2018-08-30T00:32:05.376Z,100565.30
2018-08-30T00:37:08.905Z,100566.55
2018-08-30T00:42:12.582Z,100575.00
2018-08-30T00:47:21.478Z,100591.20
2018-08-30T00:52:25.016Z,100588.19
2018-08-30T00:57:28.515Z,100590.26
2018-08-30T01:02:32.089Z,100582.36
2018-08-30T01:07:35.631Z,100591.28
2018-08-30T01:12:44.361Z,100602.25
2018-08-30T01:17:52.626Z,100602.25
2018-08-30T01:22:56.162Z,100611.56
2018-08-30T01:27:59.710Z,100615.57
2018-08-30T01:33:03.217Z,100623.32
2018-08-30T01:38:07.025Z,100627.63
2018-08-30T01:43:10.564Z,100633.38
2018-08-30T01:48:14.160Z,100635.22
2018-08-30T01:53:17.736Z,100646.48
2018-08-30T01:58:21.269Z,100645.66
2018-08-30T02:03:24.853Z,100652.96
2018-08-30T02:08:28.400Z,100658.03
2018-08-30T02:13:31.931Z,100662.70
2018-08-30T02:18:35.700Z,100668.17
2018-08-30T02:23:39.221Z,100674.71
2018-08-30T02:28:42.764Z,100679.42
2018-08-30T02:33:46.343Z,100688.28
2018-08-30T02:38:50.385Z,100690.47
2018-08-30T02:43:54.120Z,100703.27
2018-08-30T02:48:57.732Z,100703.59
2018-08-30T02:54:01.774Z,100704.19
2018-08-30T02:59:05.266Z,100706.58
2018-08-30T03:04:14.502Z,100705.27
2018-08-30T03:09:17.978Z,100714.16
2018-08-30T03:14:21.537Z,100719.54
2018-08-30T03:19:25.042Z,100713.91
2018-08-30T03:24:28.624Z,100714.87
2018-08-30T03:29:32.123Z,100721.31
2018-08-30T03:34:35.674Z,100727.37
2018-08-30T03:39:39.312Z,100733.13
2018-08-30T03:44:42.837Z,100742.63
2018-08-30T03:49:46.314Z,100746.41
2018-08-30T03:54:50.057Z,100747.55
2018-08-30T03:59:53.581Z,100748.91
2018-08-30T04:04:57.173Z,100754.67
2018-08-30T04:10:00.656Z,100754.90
2018-08-30T04:15:04.305Z,100763.69
2018-08-30T04:20:07.872Z,100771.63
2018-08-30T04:25:11.702Z,100771.57
2018-08-30T04:30:27.183Z,100771.83
2018-08-30T04:35:30.714Z,100770.89
2018-08-30T04:40:34.532Z,100778.72
2018-08-30T04:45:38.077Z,100787.64
2018-08-30T04:50:41.787Z,100792.52
2018-08-30T04:55:45.255Z,100793.28
2018-08-30T05:00:48.781Z,100802.87
2018-08-30T05:05:52.323Z,100804.31
2018-08-30T05:10:55.900Z,100808.91
2018-08-30T05:15:59.456Z,100814.70
2018-08-30T05:21:02.997Z,100820.17
2018-08-30T05:26:06.768Z,100823.13
2018-08-30T05:31:10.320Z,100834.23
2018-08-30T05:36:13.911Z,100838.98
2018-08-30T05:41:17.386Z,100847.24
2018-08-30T05:46:20.930Z,100843.76
2018-08-30T05:51:24.438Z,100850.05
2018-08-30T05:56:27.986Z,100857.86
2018-08-30T06:01:31.590Z,100862.33
2018-08-30T06:06:35.349Z,100874.09
2018-08-30T06:11:38.894Z,100876.84
2018-08-30T06:16:42.437Z,100885.23
2018-08-30T06:21:46.227Z,100888.55
2018-08-30T06:26:49.839Z,100882.32
2018-08-30T06:31:53.270Z,100891.67
2018-08-30T06:36:56.952Z,100903.91
2018-08-30T06:42:00.509Z,100909.80
2018-08-30T06:47:04.078Z,100912.34
2018-08-30T06:52:07.584Z,100916.48
2018-08-30T06:57:11.113Z,100911.73
2018-08-30T07:02:14.621Z,100915.20
2018-08-30T07:07:18.192Z,100920.13
2018-08-30T07:12:21.699Z,100920.86
2018-08-30T07:17:25.468Z,100932.57
2018-08-30T07:22:29.055Z,100940.02
2018-08-30T07:27:32.662Z,100946.07
2018-08-30T07:32:44.812Z,100950.37
2018-08-30T07:37:48.379Z,100958.13
2018-08-30T07:42:51.935Z,100961.03
2018-08-30T07:47:55.905Z,100963.80
2018-08-30T07:52:59.366Z,100971.94
2018-08-30T07:58:02.909Z,100974.33
2018-08-30T08:03:09.025Z,100979.68
2018-08-30T08:08:12.642Z,100985.61
2018-08-30T08:13:16.203Z,100991.48
2018-08-30T08:18:19.916Z,101002.60
2018-08-30T08:23:23.378Z,101006.02
2018-08-30T08:28:27.105Z,101010.56
2018-08-30T08:33:30.653Z,101008.45
2018-08-30T08:38:34.393Z,101019.25
2018-08-30T08:43:37.876Z,101026.11
2018-08-30T08:48:41.540Z,101034.33
2018-08-30T08:53:45.099Z,101029.05
2018-08-30T08:58:49.109Z,101024.09
2018-08-30T09:03:53.022Z,101031.63
2018-08-30T09:08:56.550Z,101031.88
2018-08-30T09:14:00.093Z,101026.45
2018-08-30T09:19:03.644Z,101028.03
2018-08-30T09:24:07.264Z,101029.38
2018-08-30T09:29:10.827Z,101031.98
2018-08-30T09:34:14.458Z,101034.80
2018-08-30T09:39:18.013Z,101040.67
2018-08-30T09:44:21.532Z,101040.55
2018-08-30T09:49:25.250Z,101038.92
2018-08-30T09:54:29.257Z,101044.89
2018-08-30T09:59:32.811Z,101054.84
2018-08-30T10:04:36.347Z,101053.99
2018-08-30T10:09:39.889Z,101049.25
2018-08-30T10:14:43.437Z,101047.86
2018-08-30T10:19:46.998Z,101055.98
2018-08-30T10:24:50.593Z,101056.09
2018-08-30T10:29:54.133Z,101066.65
2018-08-30T10:34:57.706Z,101058.73
2018-08-30T10:40:01.244Z,101068.02
2018-08-30T10:45:05.300Z,101072.45
2018-08-30T10:50:08.856Z,101068.88
2018-08-30T10:55:12.407Z,101072.70
2018-08-30T11:00:32.370Z,101074.86
2018-08-30T11:05:36.178Z,101076.04
2018-08-30T11:10:39.686Z,101069.95
2018-08-30T11:15:43.229Z,101071.01
2018-08-30T11:20:46.926Z,101067.52
2018-08-30T11:25:50.478Z,101064.02
2018-08-30T11:30:54.031Z,101065.14
2018-08-30T11:35:57.519Z,101057.05
2018-08-30T11:41:11.747Z,101059.89
2018-08-30T11:46:15.278Z,101064.03
2018-08-30T11:51:18.815Z,101059.92
2018-08-30T11:56:22.373Z,101075.22
2018-08-30T12:01:26.165Z,101066.85
2018-08-30T12:06:29.879Z,101065.83
2018-08-30T12:11:34.069Z,101076.61
2018-08-30T12:16:37.501Z,101074.54
2018-08-30T12:21:41.149Z,101063.94
2018-08-30T12:26:44.714Z,101073.19
2018-08-30T12:31:48.422Z,101078.30
2018-08-30T12:36:52.053Z,101075.02
2018-08-30T12:41:55.767Z,101079.34
2018-08-30T12:46:59.361Z,101084.27
2018-08-30T12:52:02.954Z,101085.63
2018-08-30T12:57:06.654Z,101087.83
2018-08-30T13:02:10.593Z,101090.47
2018-08-30T13:07:14.269Z,101100.22
2018-08-30T13:12:18.061Z,101096.69
2018-08-30T13:17:21.551Z,101101.36
2018-08-30T13:22:25.408Z,101107.87
2018-08-30T13:27:28.926Z,101106.95
2018-08-30T13:32:32.739Z,101113.66
2018-08-30T13:37:36.039Z,101129.53
2018-08-30T13:42:39.486Z,101138.06
2018-08-30T13:47:43.126Z,101137.16
2018-08-30T13:52:47.277Z,101141.88
2018-08-30T13:57:50.863Z,101142.30
2018-08-30T14:02:54.408Z,101152.11
2018-08-30T14:07:57.982Z,101157.97
2018-08-30T14:13:01.568Z,101167.08
2018-08-30T14:18:05.109Z,101163.00
2018-08-30T14:23:08.606Z,101178.19
2018-08-30T14:28:12.482Z,101174.55
2018-08-30T14:33:16.238Z,101178.23
2018-08-30T14:38:19.854Z,101186.44
2018-08-30T14:43:23.405Z,101193.81
2018-08-30T14:48:28.673Z,101184.30
2018-08-30T14:53:33.877Z,101186.87
2018-08-30T14:58:41.140Z,101181.80
2018-08-30T15:03:44.631Z,101182.73
2018-08-30T15:08:48.153Z,101190.73
2018-08-30T15:13:52.191Z,101198.02
2018-08-30T15:18:55.727Z,101210.28
2018-08-30T15:23:59.202Z,101207.47
2018-08-30T15:29:02.775Z,101217.80
2018-08-30T15:34:06.435Z,101232.72
2018-08-30T15:39:10.765Z,101238.61
2018-08-30T15:44:14.631Z,101251.20
2018-08-30T15:49:18.229Z,101262.15
2018-08-30T15:54:21.777Z,101266.23
2018-08-30T15:59:25.456Z,101262.02
2018-08-30T16:04:28.809Z,101259.53
2018-08-30T16:09:32.440Z,101266.52
2018-08-30T16:14:35.949Z,101268.13
2018-08-30T16:19:39.485Z,101270.13
2018-08-30T16:24:43.036Z,101274.84
2018-08-30T16:29:46.541Z,101271.39
2018-08-30T16:34:50.235Z,101277.58
2018-08-30T16:39:53.893Z,101280.95
2018-08-30T16:44:57.321Z,101278.66
2018-08-30T16:50:00.901Z,101283.08
2018-08-30T16:55:04.436Z,101277.87
2018-08-30T17:00:09.004Z,101282.91
2018-08-30T17:05:12.577Z,101282.00
2018-08-30T17:10:16.280Z,101282.67
2018-08-30T17:15:20.046Z,101278.67
2018-08-30T17:20:43.222Z,101277.36
2018-08-30T17:25:46.773Z,101281.14
2018-08-30T17:30:50.302Z,101274.84
2018-08-30T17:35:53.798Z,101278.78
2018-08-30T17:40:57.348Z,101277.02
2018-08-30T17:46:00.917Z,101275.34
2018-08-30T17:51:04.514Z,101266.92
2018-08-30T17:56:08.274Z,101273.67
2018-08-30T18:01:12.075Z,101283.92
2018-08-30T18:06:15.937Z,101284.24
2018-08-30T18:11:19.475Z,101279.05
2018-08-30T18:16:23.076Z,101278.84
2018-08-30T18:21:26.798Z,101273.56
2018-08-30T18:26:30.323Z,101280.39
2018-08-30T18:31:33.911Z,101295.02
2018-08-30T18:36:37.665Z,101300.48
2018-08-30T18:41:41.942Z,101301.94
2018-08-30T18:46:46.577Z,101307.89
2018-08-30T18:51:50.165Z,101318.09
2018-08-30T18:56:53.672Z,101318.09
2018-08-30T19:01:57.622Z,101318.41
2018-08-30T19:07:01.348Z,101327.47
2018-08-30T19:12:05.058Z,101325.16
2018-08-30T19:17:14.247Z,101329.51
2018-08-30T19:22:17.806Z,101330.83
2018-08-30T19:27:21.393Z,101340.23
2018-08-30T19:32:25.382Z,101345.77
2018-08-30T19:37:29.230Z,101348.61
2018-08-30T19:42:33.952Z,101353.59
2018-08-30T19:47:38.475Z,101351.78
2018-08-30T19:52:42.131Z,101357.53
2018-08-30T19:57:46.855Z,101358.36
2018-08-30T20:02:50.642Z,101361.06
2018-08-30T20:07:54.334Z,101367.34
2018-08-30T20:12:59.015Z,101360.58
2018-08-30T20:18:03.744Z,101360.91
2018-08-30T20:23:08.263Z,101364.84
2018-08-30T20:28:12.256Z,101361.34
2018-08-30T20:33:16.278Z,101365.29
2018-08-30T20:38:20.610Z,101362.79
2018-08-30T20:43:26.535Z,101363.74
2018-08-30T20:48:30.537Z,101368.05
2018-08-30T20:53:35.394Z,101372.94
2018-08-30T20:58:39.249Z,101373.31
2018-08-30T21:03:43.064Z,101371.72
2018-08-30T21:08:46.684Z,101371.34
2018-08-30T21:13:50.654Z,101377.66
2018-08-30T21:18:54.466Z,101370.98
2018-08-30T21:23:58.567Z,101373.16
2018-08-30T21:29:02.157Z,101369.34
2018-08-30T21:34:05.725Z,101368.75
2018-08-30T21:39:09.937Z,101367.77
2018-08-30T21:44:13.757Z,101370.09
2018-08-30T21:49:17.312Z,101371.78
2018-08-30T21:54:22.138Z,101371.33
2018-08-30T21:59:25.677Z,101377.66
2018-08-30T22:04:29.373Z,101382.45
2018-08-30T22:09:32.904Z,101381.63
2018-08-30T22:14:37.161Z,101384.91
2018-08-30T22:19:40.703Z,101382.42
2018-08-30T22:24:44.149Z,101383.42
2018-08-30T22:29:47.860Z,101379.83
2018-08-30T22:34:51.402Z,101381.20
2018-08-30T22:39:55.189Z,101386.92
2018-08-30T22:44:58.629Z,101383.82
2018-08-30T22:50:02.202Z,101388.69
2018-08-30T22:55:05.735Z,101383.89
2018-08-30T23:00:10.858Z,101382.70
2018-08-30T23:05:14.705Z,101387.77
2018-08-30T23:10:18.736Z,101386.16
2018-08-30T23:15:22.305Z,101399.02
2018-08-30T23:20:25.887Z,101396.63
2018-08-30T23:25:29.604Z,101396.42
2018-08-30T23:30:33.173Z,101391.27
2018-08-30T23:35:36.639Z,101385.20
2018-08-30T23:40:40.145Z,101386.17
2018-08-30T23:45:43.689Z,101382.84
2018-08-30T23:50:47.213Z,101383.38
2018-08-30T23:55:50.733Z,101379.07
